Time;durP1;ratioP1;P1;durP2;ratioP2;P2;SDS_P1;SDS_P2;PMS_P1;PMS_P2;Temp;Humidity;BMP_temperature;BMP_pressure;BME280_temperature;BME280_humidity;BME280_pressure;Samples;Min_cycle;Max_cycle;Signal;HPM_P1;HPM_P2
2021/05/07 00:01:00;;;;;;;8.73;7.93;;;7.60;1.00;;;;;;5116382;27;20223;-80
2021/05/07 00:03:27;;;;;;;8.77;7.88;;;7.60;1.00;;;;;;5117284;28;20204;-79
2021/05/07 00:05:55;;;;;;;9.20;8.30;;;7.60;1.00;;;;;;5114752;28;20192;-80
2021/05/07 00:08:22;;;;;;;9.80;8.30;;;7.60;1.00;;;;;;5131772;27;20212;-78
2021/05/07 00:10:48;;;;;;;8.48;7.78;;;7.50;1.00;;;;;;5112992;28;20220;-79
2021/05/07 00:13:17;;;;;;;9.95;8.80;;;7.50;1.00;;;;;;5132332;27;20216;-81
2021/05/07 00:15:44;;;;;;;9.52;8.60;;;7.50;1.00;;;;;;5112146;28;20244;-80
2021/05/07 00:18:11;;;;;;;9.75;8.85;;;7.40;1.00;;;;;;5109936;28;20212;-79
2021/05/07 00:20:37;;;;;;;9.90;9.00;;;7.40;1.00;;;;;;5112163;28;20533;-80
2021/05/07 00:23:07;;;;;;;9.13;8.27;;;7.40;1.00;;;;;;5108311;28;20771;-79
2021/05/07 00:25:34;;;;;;;11.27;10.27;;;7.30;1.00;;;;;;5129308;27;20215;-79
2021/05/07 00:28:01;;;;;;;12.10;11.07;;;7.20;1.00;;;;;;5100829;28;20231;-79
2021/05/07 00:30:29;;;;;;;11.80;10.70;;;7.20;1.00;;;;;;5105739;28;20227;-79
2021/05/07 00:32:56;;;;;;;13.93;9.52;;;7.10;1.00;;;;;;5101958;28;20219;-81
2021/05/07 00:35:22;;;;;;;11.73;10.73;;;7.10;1.00;;;;;;5103723;28;20216;-79
2021/05/07 00:37:49;;;;;;;11.10;10.15;;;7.10;1.00;;;;;;5106276;28;20227;-78
2021/05/07 00:40:16;;;;;;;11.85;9.57;;;7.10;1.00;;;;;;5095431;28;20220;-78
2021/05/07 00:42:43;;;;;;;10.13;9.30;;;7.00;1.00;;;;;;5095573;28;20224;-78
2021/05/07 00:45:12;;;;;;;10.40;9.40;;;7.00;1.00;;;;;;5097510;28;20219;-78
2021/05/07 00:47:44;;;;;;;10.25;9.25;;;7.00;1.00;;;;;;5099995;28;20311;-78
2021/05/07 00:50:11;;;;;;;9.88;8.93;;;7.00;1.00;;;;;;5104842;28;20212;-79
2021/05/07 00:52:38;;;;;;;10.07;9.05;;;7.00;1.00;;;;;;5097306;28;20228;-78
2021/05/07 00:55:05;;;;;;;10.25;7.95;;;7.00;1.00;;;;;;5096607;28;20238;-78
2021/05/07 00:57:32;;;;;;;8.90;8.10;;;7.00;1.00;;;;;;5090469;28;20220;-79
2021/05/07 00:59:58;;;;;;;8.85;8.05;;;7.00;1.00;;;;;;5092221;28;20220;-78
2021/05/07 01:02:24;;;;;;;9.98;8.13;;;6.90;1.00;;;;;;5090257;28;20668;-79
2021/05/07 01:04:52;;;;;;;9.15;8.18;;;6.90;1.00;;;;;;5102981;28;20212;-80
2021/05/07 01:07:19;;;;;;;8.90;8.10;;;7.00;1.00;;;;;;5105550;28;20259;-78
2021/05/07 01:09:48;;;;;;;9.82;8.90;;;7.10;1.00;;;;;;5101845;28;20227;-77
2021/05/07 01:12:16;;;;;;;8.82;8.07;;;7.10;1.00;;;;;;5105053;28;20272;-77
2021/05/07 01:14:56;;;;;;;10.30;9.40;;;7.10;1.00;;;;;;5095959;28;20220;-79
2021/05/07 01:17:23;;;;;;;10.02;9.05;;;7.10;1.00;;;;;;5107440;28;20242;-78
2021/05/07 01:19:49;;;;;;;10.73;9.73;;;7.10;1.00;;;;;;5097860;28;20242;-80
2021/05/07 01:22:16;;;;;;;10.32;9.40;;;7.10;1.00;;;;;;5097081;28;20354;-78
2021/05/07 01:24:43;;;;;;;9.43;8.52;;;7.10;1.00;;;;;;5101531;27;20232;-77
2021/05/07 01:27:11;;;;;;;9.65;8.75;;;7.20;1.00;;;;;;5099355;28;21067;-77
2021/05/07 01:29:37;;;;;;;8.95;8.02;;;7.20;1.00;;;;;;5086837;28;21090;-80
2021/05/07 01:32:04;;;;;;;10.32;9.32;;;7.20;1.00;;;;;;5084110;28;20217;-80
2021/05/07 01:34:30;;;;;;;9.80;8.75;;;7.20;1.00;;;;;;5088382;28;20232;-76
2021/05/07 01:36:56;;;;;;;10.65;9.57;;;7.20;1.00;;;;;;5103639;28;20220;-79
2021/05/07 01:39:25;;;;;;;10.93;9.82;;;7.10;1.00;;;;;;5084397;28;22791;-78
2021/05/07 01:41:51;;;;;;;8.50;7.80;;;7.10;1.00;;;;;;5099746;28;20230;-79
2021/05/07 01:44:18;;;;;;;9.90;8.90;;;7.10;1.00;;;;;;5095851;28;23303;-76
2021/05/07 01:46:44;;;;;;;9.02;8.23;;;7.00;1.00;;;;;;5091996;28;20225;-81
2021/05/07 01:49:10;;;;;;;9.20;8.40;;;7.00;1.00;;;;;;5089655;28;21037;-81
2021/05/07 01:51:36;;;;;;;10.00;9.05;;;7.00;1.00;;;;;;5083002;28;20228;-81
2021/05/07 01:54:03;;;;;;;9.45;8.55;;;7.00;1.00;;;;;;5083207;28;20309;-78
2021/05/07 01:56:30;;;;;;;9.30;8.40;;;7.00;1.00;;;;;;5116742;22;20240;-80
2021/05/07 01:58:56;;;;;;;11.07;8.90;;;7.00;1.00;;;;;;5070230;28;20225;-80
2021/05/07 02:01:22;;;;;;;9.65;8.75;;;6.90;1.00;;;;;;5059484;28;20220;-80
2021/05/07 02:03:48;;;;;;;9.18;8.27;;;6.90;1.00;;;;;;5061792;28;20230;-83
2021/05/07 02:06:15;;;;;;;9.80;8.90;;;7.00;1.00;;;;;;5067533;28;20270;-81
2021/05/07 02:08:41;;;;;;;10.05;9.07;;;7.00;1.00;;;;;;5062120;28;20232;-80
2021/05/07 02:11:08;;;;;;;13.05;9.35;;;7.00;1.00;;;;;;5064278;28;20216;-81
2021/05/07 02:13:35;;;;;;;13.45;9.93;;;7.00;1.00;;;;;;5067178;28;21013;-79
2021/05/07 02:16:01;;;;;;;10.95;8.90;;;7.00;1.00;;;;;;5069176;28;20229;-80
2021/05/07 02:18:27;;;;;;;10.95;9.25;;;7.00;1.00;;;;;;5069788;28;20229;-81
2021/05/07 02:20:54;;;;;;;11.98;10.20;;;6.90;1.00;;;;;;5061477;28;20220;-81
2021/05/07 02:23:22;;;;;;;13.75;9.60;;;6.90;1.00;;;;;;5067849;28;20323;-81
2021/05/07 02:25:49;;;;;;;12.13;9.85;;;6.90;1.00;;;;;;5057048;28;20228;-81
2021/05/07 02:28:15;;;;;;;10.88;9.88;;;6.90;1.00;;;;;;5060946;28;20224;-81
2021/05/07 02:30:42;;;;;;;13.13;9.77;;;6.90;1.00;;;;;;5059585;28;20213;-80
2021/05/07 02:33:08;;;;;;;10.38;9.38;;;6.80;1.00;;;;;;5061017;28;20425;-80
2021/05/07 02:35:35;;;;;;;10.98;9.85;;;6.80;1.00;;;;;;5070982;28;20230;-80
2021/05/07 02:38:02;;;;;;;13.18;10.50;;;6.70;1.00;;;;;;5058001;28;20275;-81
2021/05/07 02:40:28;;;;;;;12.63;11.02;;;6.70;1.00;;;;;;5062998;28;20213;-81
2021/05/07 02:42:54;;;;;;;11.60;10.40;;;6.60;1.00;;;;;;5065123;28;20224;-81
2021/05/07 02:45:21;;;;;;;11.68;10.57;;;6.60;1.00;;;;;;5066864;28;20224;-81
2021/05/07 02:47:49;;;;;;;11.48;10.38;;;6.60;1.00;;;;;;5064690;28;20229;-80
2021/05/07 02:50:15;;;;;;;14.43;10.55;;;6.60;1.00;;;;;;5062859;28;20276;-80
2021/05/07 02:52:41;;;;;;;16.25;10.45;;;6.60;1.00;;;;;;5064428;28;20237;-80
2021/05/07 02:55:09;;;;;;;11.52;10.40;;;6.60;1.00;;;;;;5064184;28;20231;-80
2021/05/07 02:57:35;;;;;;;11.50;10.38;;;6.50;1.00;;;;;;5064071;28;20255;-83
2021/05/07 03:00:02;;;;;;;12.40;11.13;;;6.50;1.00;;;;;;5064393;28;20259;-82
2021/05/07 03:02:28;;;;;;;13.35;10.00;;;6.50;1.00;;;;;;5060875;28;20233;-79
2021/05/07 03:04:55;;;;;;;17.02;15.27;;;6.50;1.00;;;;;;5065342;28;20360;-81
2021/05/07 03:07:21;;;;;;;11.55;10.38;;;6.50;1.00;;;;;;5063409;28;20217;-81
2021/05/07 03:09:47;;;;;;;16.30;12.60;;;6.50;1.00;;;;;;5061356;28;20267;-80
2021/05/07 03:12:13;;;;;;;14.85;11.95;;;6.60;1.00;;;;;;5067750;27;20212;-80
2021/05/07 03:14:39;;;;;;;12.70;11.35;;;6.60;1.00;;;;;;5079286;28;20236;-79
2021/05/07 03:17:05;;;;;;;11.85;10.65;;;6.60;1.00;;;;;;5079258;28;20284;-80
2021/05/07 03:19:31;;;;;;;13.10;11.80;;;6.60;1.00;;;;;;5076826;28;20267;-80
2021/05/07 03:21:58;;;;;;;14.40;12.90;;;6.60;1.00;;;;;;5070230;28;20260;-81
2021/05/07 03:24:25;;;;;;;12.95;10.82;;;6.60;1.00;;;;;;5062597;28;20228;-81
2021/05/07 03:26:51;;;;;;;13.10;11.60;;;6.60;1.00;;;;;;5068307;28;20271;-80
2021/05/07 03:29:17;;;;;;;12.25;11.00;;;6.60;1.00;;;;;;5065395;28;20445;-80
2021/05/07 03:31:43;;;;;;;12.45;11.25;;;6.60;1.00;;;;;;5071384;28;20221;-80
2021/05/07 03:34:09;;;;;;;14.02;12.63;;;6.70;1.00;;;;;;5064714;28;20998;-82
2021/05/07 03:36:35;;;;;;;13.52;11.55;;;6.70;1.00;;;;;;5067220;28;20289;-82
2021/05/07 03:39:03;;;;;;;13.73;11.57;;;6.80;1.00;;;;;;5069526;28;20225;-80
2021/05/07 03:41:30;;;;;;;15.70;12.77;;;6.80;1.00;;;;;;5061249;28;20235;-81
2021/05/07 03:43:57;;;;;;;13.48;12.02;;;6.70;1.00;;;;;;5065701;28;20255;-82
2021/05/07 03:46:23;;;;;;;13.93;12.50;;;6.80;1.00;;;;;;5066916;28;20326;-82
2021/05/07 03:48:49;;;;;;;14.07;12.20;;;6.80;1.00;;;;;;5066518;28;20336;-81
2021/05/07 03:51:15;;;;;;;14.77;13.13;;;6.90;1.00;;;;;;5061873;28;20221;-80
2021/05/07 03:53:44;;;;;;;15.25;12.93;;;6.90;1.00;;;;;;5068972;28;20282;-81
2021/05/07 03:56:11;;;;;;;16.08;13.95;;;6.90;1.00;;;;;;5070600;28;20221;-81
2021/05/07 03:58:38;;;;;;;13.80;12.50;;;6.90;1.00;;;;;;5077912;28;20229;-79
2021/05/07 04:01:07;;;;;;;12.23;11.13;;;6.90;1.00;;;;;;5078098;28;20221;-81
2021/05/07 04:03:33;;;;;;;11.60;10.55;;;6.90;1.00;;;;;;5067535;28;21048;-81
2021/05/07 04:05:59;;;;;;;13.48;11.18;;;6.90;1.00;;;;;;5061751;28;20236;-80
2021/05/07 04:08:27;;;;;;;13.93;12.50;;;6.90;1.00;;;;;;5069537;28;20284;-80
2021/05/07 04:10:58;;;;;;;12.15;11.00;;;7.00;1.00;;;;;;5057350;28;20323;-80
2021/05/07 04:13:35;;;;;;;13.10;11.55;;;7.00;1.00;;;;;;5059730;28;21056;-81
2021/05/07 04:16:04;;;;;;;12.45;11.25;;;7.10;1.00;;;;;;5064326;28;20225;-84
2021/05/07 04:18:30;;;;;;;13.23;11.90;;;7.10;1.00;;;;;;5067629;28;20229;-86
2021/05/07 04:20:56;;;;;;;12.55;10.93;;;7.20;1.00;;;;;;5066328;28;20240;-77
2021/05/07 04:23:22;;;;;;;15.00;11.05;;;7.20;1.00;;;;;;5067584;28;20229;-87
2021/05/07 04:25:51;;;;;;;14.30;12.85;;;7.30;1.00;;;;;;5071090;28;20212;-79
2021/05/07 04:28:17;;;;;;;14.55;12.95;;;7.40;1.00;;;;;;5064288;28;20292;-80
2021/05/07 04:30:44;;;;;;;12.88;10.75;;;7.40;1.00;;;;;;5064187;28;20232;-80
2021/05/07 04:33:11;;;;;;;14.48;12.40;;;7.50;1.00;;;;;;5062096;28;20236;-80
2021/05/07 04:35:37;;;;;;;12.60;11.30;;;7.50;1.00;;;;;;5060665;28;20783;-79
2021/05/07 04:38:03;;;;;;;12.75;11.27;;;7.60;1.00;;;;;;5052573;28;20292;-78
2021/05/07 04:40:30;;;;;;;15.13;11.88;;;7.60;1.00;;;;;;5064073;28;20221;-78
2021/05/07 04:42:59;;;;;;;13.65;12.00;;;7.70;1.00;;;;;;5063526;28;20424;-80
2021/05/07 04:45:26;;;;;;;12.18;10.88;;;7.70;1.00;;;;;;5068184;28;20217;-79
2021/05/07 04:47:53;;;;;;;11.57;10.48;;;7.70;1.00;;;;;;5065354;28;20297;-80
2021/05/07 04:50:20;;;;;;;12.52;11.18;;;7.70;1.00;;;;;;5068269;28;20247;-81
2021/05/07 04:52:46;;;;;;;12.15;10.85;;;7.80;1.00;;;;;;5065081;28;20220;-79
2021/05/07 04:55:12;;;;;;;11.95;10.75;;;7.90;1.00;;;;;;5063649;28;20796;-79
2021/05/07 04:57:38;;;;;;;13.82;10.98;;;8.00;1.00;;;;;;5069599;28;20240;-80
2021/05/07 05:00:06;;;;;;;11.98;10.00;;;8.10;1.00;;;;;;5063327;28;20228;-79
2021/05/07 05:02:34;;;;;;;13.10;10.45;;;8.20;1.00;;;;;;5065655;28;20232;-82
2021/05/07 05:05:01;;;;;;;14.38;10.85;;;8.20;1.00;;;;;;5068744;28;20225;-79
2021/05/07 05:07:27;;;;;;;9.45;8.55;;;8.20;1.00;;;;;;5082919;28;20251;-81
2021/05/07 05:09:53;;;;;;;9.25;8.40;;;8.30;1.00;;;;;;5071081;28;20228;-80
2021/05/07 05:12:20;;;;;;;8.55;7.72;;;8.30;1.00;;;;;;5075305;28;20216;-80
2021/05/07 05:14:46;;;;;;;9.00;8.10;;;8.40;1.00;;;;;;5068197;28;20221;-80
2021/05/07 05:17:13;;;;;;;8.68;7.88;;;8.40;1.00;;;;;;5075097;28;20785;-81
2021/05/07 05:19:39;;;;;;;10.15;9.15;;;8.40;1.00;;;;;;5063379;28;20213;-81
2021/05/07 05:22:06;;;;;;;8.10;7.20;;;8.50;1.00;;;;;;5063789;28;21435;-79
2021/05/07 05:24:32;;;;;;;7.72;5.82;;;8.40;1.00;;;;;;5057057;28;20878;-80
2021/05/07 05:26:59;;;;;;;6.93;6.32;;;8.30;1.00;;;;;;5065843;28;20764;-83
2021/05/07 05:29:26;;;;;;;7.57;6.82;;;8.20;1.00;;;;;;5060875;28;20232;-84
2021/05/07 05:31:52;;;;;;;8.20;7.35;;;8.10;1.00;;;;;;5067760;28;20319;-84
2021/05/07 05:34:18;;;;;;;7.93;7.22;;;8.10;1.00;;;;;;5067654;28;20232;-82
2021/05/07 05:36:46;;;;;;;12.20;7.90;;;8.10;1.00;;;;;;5063256;28;20233;-83
2021/05/07 05:39:15;;;;;;;6.32;5.70;;;8.10;1.00;;;;;;5071121;28;20229;-80
2021/05/07 05:41:41;;;;;;;5.78;5.18;;;8.10;1.00;;;;;;5070025;28;20220;-83
2021/05/07 05:44:09;;;;;;;6.50;5.90;;;8.00;1.00;;;;;;5075501;28;20316;-84
2021/05/07 05:46:36;;;;;;;6.50;5.32;;;7.90;1.00;;;;;;5067640;28;20233;-85
2021/05/07 05:49:03;;;;;;;6.53;4.85;;;7.90;1.00;;;;;;5065614;28;20237;-84
2021/05/07 05:51:29;;;;;;;6.03;5.43;;;7.90;1.00;;;;;;5071507;28;20272;-86
2021/05/07 05:53:56;;;;;;;11.15;5.45;;;7.80;1.00;;;;;;5071273;28;20225;-85
2021/05/07 05:56:23;;;;;;;8.95;4.85;;;7.70;1.00;;;;;;5073953;28;20744;-86
2021/05/07 05:58:49;;;;;;;7.63;6.88;;;7.70;1.00;;;;;;5068321;28;20269;-84
2021/05/07 06:01:16;;;;;;;7.78;5.50;;;7.60;1.00;;;;;;5066773;28;20208;-82
2021/05/07 06:03:42;;;;;;;9.15;6.13;;;7.60;1.00;;;;;;5066208;28;21049;-84
2021/05/07 06:06:08;;;;;;;7.30;5.15;;;7.70;1.00;;;;;;5066238;28;20375;-84
2021/05/07 06:08:35;;;;;;;6.85;5.80;;;7.70;1.00;;;;;;5067838;28;20347;-82
2021/05/07 06:11:03;;;;;;;5.97;4.90;;;7.80;1.00;;;;;;5064027;28;20228;-83
2021/05/07 06:13:30;;;;;;;5.13;4.72;;;7.80;1.00;;;;;;5066127;28;20256;-82
2021/05/07 06:15:58;;;;;;;6.43;4.95;;;7.80;1.00;;;;;;5079964;28;20248;-82
2021/05/07 06:18:24;;;;;;;6.13;4.90;;;7.90;1.00;;;;;;5066721;28;20229;-85
2021/05/07 06:20:51;;;;;;;5.95;4.40;;;8.10;1.00;;;;;;5069129;28;20225;-87
2021/05/07 06:23:17;;;;;;;7.50;4.90;;;8.20;1.00;;;;;;5074595;28;20217;-87
2021/05/07 06:29:07;;;;;;;9.15;4.35;;;8.30;1.00;;;;;;5071193;28;20229;-87
2021/05/07 06:32:16;;;;;;;8.70;4.57;;;8.30;1.00;;;;;;5038755;28;20328;-88
2021/05/07 06:34:43;;;;;;;7.53;5.05;;;8.30;1.00;;;;;;5080610;28;20307;-88
2021/05/07 06:37:10;;;;;;;9.25;4.35;;;8.40;1.00;;;;;;5071900;28;20229;-88
2021/05/07 06:39:38;;;;;;;12.65;5.22;;;8.50;1.00;;;;;;5070866;28;20308;-87
2021/05/07 06:42:05;;;;;;;18.65;6.95;;;8.50;1.00;;;;;;5071946;28;20307;-85
2021/05/07 06:44:35;;;;;;;9.70;4.60;;;8.50;1.00;;;;;;5072024;28;20608;-86
2021/05/07 06:47:01;;;;;;;10.20;4.35;;;8.50;1.00;;;;;;5068197;28;20801;-86
2021/05/07 06:49:29;;;;;;;3.67;3.20;;;8.50;1.00;;;;;;5069659;28;21001;-83
2021/05/07 06:51:55;;;;;;;3.53;3.10;;;8.30;1.00;;;;;;5064761;28;20248;-81
2021/05/07 06:54:26;;;;;;;4.22;3.35;;;8.10;1.00;;;;;;5065950;28;20225;-82
2021/05/07 06:56:53;;;;;;;6.10;4.65;;;8.00;1.00;;;;;;5069897;28;20251;-84
2021/05/07 06:59:20;;;;;;;10.43;4.55;;;7.80;1.00;;;;;;5067030;28;20216;-81
2021/05/07 07:01:47;;;;;;;5.65;3.90;;;7.70;1.00;;;;;;5065204;28;20308;-81
2021/05/07 07:04:13;;;;;;;5.05;3.45;;;7.60;1.00;;;;;;5073918;27;20218;-81
2021/05/07 07:06:40;;;;;;;3.80;2.70;;;7.40;1.00;;;;;;5082943;28;20252;-83
2021/05/07 07:09:06;;;;;;;7.15;4.07;;;7.40;1.00;;;;;;5072703;28;20235;-84
2021/05/07 07:11:33;;;;;;;5.22;4.32;;;7.30;1.00;;;;;;5079417;28;20244;-85
2021/05/07 07:13:59;;;;;;;6.03;3.60;;;7.30;1.00;;;;;;5068660;28;20232;-83
2021/05/07 07:16:26;;;;;;;6.32;5.47;;;7.20;1.00;;;;;;5075966;28;20228;-83
2021/05/07 07:18:53;;;;;;;5.50;3.80;;;7.20;1.00;;;;;;5077581;28;20243;-85
2021/05/07 07:21:20;;;;;;;8.65;4.20;;;7.20;1.00;;;;;;5079079;28;20229;-85
2021/05/07 07:23:46;;;;;;;6.25;4.47;;;7.10;1.00;;;;;;5082964;28;20208;-86
2021/05/07 07:26:12;;;;;;;8.90;4.68;;;7.00;1.00;;;;;;5076685;28;20229;-87
2021/05/07 07:28:39;;;;;;;8.65;4.35;;;6.90;1.00;;;;;;5075702;28;20241;-85
2021/05/07 07:31:06;;;;;;;6.72;6.03;;;6.80;1.00;;;;;;5075046;28;20229;-82
2021/05/07 07:33:33;;;;;;;7.82;4.85;;;6.80;1.00;;;;;;5078467;28;20212;-85
2021/05/07 07:36:00;;;;;;;6.93;6.10;;;6.80;1.00;;;;;;5080018;28;20356;-85
2021/05/07 07:38:26;;;;;;;10.52;4.88;;;6.80;1.00;;;;;;5087316;27;20288;-85
2021/05/07 07:40:53;;;;;;;6.10;5.30;;;6.70;1.00;;;;;;5085462;27;20717;-84
2021/05/07 07:43:21;;;;;;;4.97;4.15;;;6.60;1.00;;;;;;5076746;28;20323;-83
2021/05/07 07:45:48;;;;;;;10.70;4.90;;;6.50;1.00;;;;;;5067082;28;20265;-82
2021/05/07 07:48:14;;;;;;;8.57;5.28;;;6.50;1.00;;;;;;5071784;28;20323;-87
2021/05/07 07:50:41;;;;;;;10.00;7.25;;;6.40;1.00;;;;;;5069576;28;22914;-81
2021/05/07 07:53:09;;;;;;;5.60;4.57;;;6.40;1.00;;;;;;5067956;28;20241;-81
2021/05/07 07:55:35;;;;;;;6.75;4.93;;;6.40;1.00;;;;;;5065305;28;20250;-80
2021/05/07 07:58:01;;;;;;;17.38;15.82;;;6.40;1.00;;;;;;5061805;28;20225;-81
2021/05/07 08:00:28;;;;;;;6.95;5.40;;;6.40;1.00;;;;;;5089213;22;20815;-77
2021/05/07 08:02:54;;;;;;;6.50;5.18;;;6.40;1.00;;;;;;5085507;28;20224;-76
2021/05/07 08:05:20;;;;;;;6.25;4.65;;;6.50;1.00;;;;;;5085165;28;21007;-80
2021/05/07 08:07:47;;;;;;;8.30;5.20;;;6.50;1.00;;;;;;5079478;28;20237;-76
2021/05/07 08:10:16;;;;;;;6.80;6.18;;;6.50;1.00;;;;;;5075347;27;20235;-77
2021/05/07 08:12:43;;;;;;;7.88;6.47;;;6.60;1.00;;;;;;5083734;28;20710;-77
2021/05/07 08:15:09;;;;;;;5.07;4.57;;;6.50;1.00;;;;;;5084119;28;20448;-80
2021/05/07 08:17:36;;;;;;;6.00;5.30;;;6.50;1.00;;;;;;5087612;28;20315;-81
2021/05/07 08:20:04;;;;;;;7.75;4.60;;;6.50;1.00;;;;;;5087754;28;20224;-81
2021/05/07 08:22:30;;;;;;;8.82;6.22;;;6.50;1.00;;;;;;5094669;28;20228;-82
2021/05/07 08:24:57;;;;;;;9.18;5.65;;;6.50;1.00;;;;;;5090564;28;21034;-83
2021/05/07 08:27:24;;;;;;;6.50;4.93;;;6.40;1.00;;;;;;5088915;28;20220;-76
2021/05/07 08:29:50;;;;;;;9.20;5.47;;;6.30;1.00;;;;;;5081961;28;20361;-77
2021/05/07 08:32:17;;;;;;;9.00;5.40;;;6.30;1.00;;;;;;5081565;28;20246;-77
2021/05/07 08:34:44;;;;;;;6.82;5.05;;;6.30;1.00;;;;;;5078461;28;20227;-78
2021/05/07 08:37:11;;;;;;;6.70;5.55;;;6.20;1.00;;;;;;5080403;28;20240;-76
2021/05/07 08:39:38;;;;;;;6.15;5.47;;;6.20;1.00;;;;;;5085869;28;20699;-78
2021/05/07 08:42:05;;;;;;;5.45;4.22;;;6.20;1.00;;;;;;5080490;28;20226;-77
2021/05/07 08:44:33;;;;;;;19.83;10.73;;;6.20;1.00;;;;;;5087203;28;20689;-79
2021/05/07 08:47:00;;;;;;;18.35;16.35;;;6.10;1.00;;;;;;5087250;28;20224;-79
2021/05/07 08:49:27;;;;;;;7.88;5.28;;;6.00;1.00;;;;;;5099943;28;20232;-77
2021/05/07 08:51:53;;;;;;;11.20;5.03;;;6.00;1.00;;;;;;5115489;28;20223;-77
2021/05/07 08:54:19;;;;;;;4.10;3.35;;;6.00;1.00;;;;;;5118178;28;20307;-77
2021/05/07 08:56:45;;;;;;;5.75;4.28;;;5.90;1.00;;;;;;5108265;27;20200;-76
2021/05/07 08:59:12;;;;;;;6.10;4.63;;;6.00;1.00;;;;;;5112259;28;20271;-78
2021/05/07 09:01:41;;;;;;;5.30;3.85;;;5.90;1.00;;;;;;5111449;28;20283;-78
2021/05/07 09:04:11;;;;;;;7.15;5.28;;;5.80;1.00;;;;;;5117422;28;20213;-77
2021/05/07 09:06:44;;;;;;;4.05;3.65;;;5.70;1.00;;;;;;5111587;28;20215;-78
2021/05/07 09:09:19;;;;;;;5.28;3.20;;;5.70;1.00;;;;;;5110122;27;20232;-79
2021/05/07 09:11:46;;;;;;;3.50;3.00;;;5.50;1.00;;;;;;5106045;28;20228;-81
2021/05/07 09:14:12;;;;;;;2.80;2.60;;;5.40;1.00;;;;;;5111170;28;20851;-79
2021/05/07 09:16:51;;;;;;;5.05;3.05;;;5.20;1.00;;;;;;5109898;27;20188;-80
2021/05/07 09:19:21;;;;;;;7.13;3.60;;;5.00;1.00;;;;;;5117100;28;20231;-80
2021/05/07 09:21:51;;;;;;;5.60;5.00;;;5.00;1.00;;;;;;5518851;22;20216;-82
2021/05/07 09:24:18;;;;;;;4.40;3.70;;;4.90;1.00;;;;;;5133497;27;20204;-81
2021/05/07 09:26:49;;;;;;;4.85;3.63;;;4.80;1.00;;;;;;5133233;27;20231;-82
2021/05/07 09:29:20;;;;;;;4.60;3.70;;;4.60;1.00;;;;;;5129933;27;20273;-84
2021/05/07 09:31:51;;;;;;;4.20;3.78;;;4.40;1.00;;;;;;5129180;27;20260;-80
2021/05/07 09:34:19;;;;;;;5.10;4.45;;;4.40;1.00;;;;;;5127222;27;20268;-86
2021/05/07 09:36:46;;;;;;;3.45;3.15;;;4.30;1.00;;;;;;5117210;27;20208;-83
2021/05/07 09:39:14;;;;;;;3.65;3.35;;;4.20;1.00;;;;;;5111651;27;20243;-80
2021/05/07 09:41:44;;;;;;;3.63;3.38;;;4.10;1.00;;;;;;5112690;27;20583;-78
2021/05/07 09:44:15;;;;;;;4.72;4.22;;;4.00;1.00;;;;;;5131058;27;20219;-77
2021/05/07 09:46:41;;;;;;;5.65;4.40;;;4.00;1.00;;;;;;5120825;28;20231;-78
2021/05/07 09:49:09;;;;;;;5.15;4.70;;;3.90;1.00;;;;;;5111153;27;20239;-79
2021/05/07 09:51:41;;;;;;;6.38;5.75;;;3.80;1.00;;;;;;5114060;27;20273;-79
2021/05/07 09:54:09;;;;;;;7.40;6.10;;;3.80;1.00;;;;;;5125873;27;20216;-81
2021/05/07 09:56:36;;;;;;;6.40;5.20;;;3.80;1.00;;;;;;5125784;28;20254;-78
2021/05/07 09:59:03;;;;;;;11.35;5.90;;;3.80;1.00;;;;;;5111942;27;20240;-80
2021/05/07 10:01:30;;;;;;;7.25;5.30;;;3.80;1.00;;;;;;5114054;28;20296;-78
2021/05/07 10:03:59;;;;;;;6.22;5.05;;;3.80;1.00;;;;;;5105925;27;20327;-79
2021/05/07 10:06:27;;;;;;;6.78;6.10;;;3.80;1.00;;;;;;5107444;28;20224;-78
2021/05/07 10:08:53;;;;;;;7.20;6.65;;;3.90;1.00;;;;;;5099711;27;20268;-79
2021/05/07 10:11:21;;;;;;;5.10;4.65;;;4.10;1.00;;;;;;5103877;27;21460;-79
2021/05/07 10:13:49;;;;;;;7.50;6.72;;;4.30;1.00;;;;;;5108176;28;20216;-79
2021/05/07 10:16:15;;;;;;;5.13;4.10;;;4.50;1.00;;;;;;5107561;27;20215;-76
2021/05/07 10:18:41;;;;;;;5.38;3.88;;;4.60;1.00;;;;;;5110123;27;20218;-77
2021/05/07 10:21:10;;;;;;;4.97;3.65;;;4.50;1.00;;;;;;5099251;27;20223;-78
2021/05/07 10:23:49;;;;;;;3.47;3.17;;;4.60;1.00;;;;;;5107900;28;21120;-78
2021/05/07 10:26:15;;;;;;;5.03;4.47;;;4.70;1.00;;;;;;5113985;27;20278;-77
2021/05/07 10:28:45;;;;;;;4.30;3.90;;;4.70;1.00;;;;;;5109244;27;20327;-78
2021/05/07 10:31:12;;;;;;;5.53;5.03;;;4.70;1.00;;;;;;5106677;27;20781;-77
2021/05/07 10:33:39;;;;;;;4.70;4.20;;;5.00;1.00;;;;;;5101066;27;20327;-76
2021/05/07 10:36:06;;;;;;;4.03;3.70;;;5.30;1.00;;;;;;5107682;27;20233;-77
2021/05/07 10:38:32;;;;;;;3.70;3.40;;;5.60;1.00;;;;;;5099440;27;20762;-78
2021/05/07 10:41:07;;;;;;;4.05;3.65;;;5.70;1.00;;;;;;5102705;27;20907;-78
2021/05/07 10:43:38;;;;;;;3.50;3.20;;;6.00;1.00;;;;;;5101547;27;20227;-76
2021/05/07 10:46:04;;;;;;;3.60;3.30;;;6.30;1.00;;;;;;5101620;27;20216;-78
2021/05/07 10:48:31;;;;;;;2.38;2.17;;;6.60;1.00;;;;;;5110702;28;20235;-79
2021/05/07 10:51:03;;;;;;;2.20;2.00;;;6.90;1.00;;;;;;5108508;27;20223;-76
2021/05/07 10:53:35;;;;;;;1.95;1.75;;;7.20;1.00;;;;;;5124672;27;21366;-76
2021/05/07 10:56:14;;;;;;;2.88;2.30;;;7.70;1.00;;;;;;5110789;27;20234;-79
2021/05/07 10:58:41;;;;;;;2.13;2.03;;;8.20;1.00;;;;;;5112912;27;20211;-78
2021/05/07 11:01:23;;;;;;;2.70;2.45;;;8.80;1.00;;;;;;5101582;27;20232;-78
2021/05/07 11:04:03;;;;;;;2.30;1.53;;;10.30;1.00;;;;;;5096882;27;20270;-80
2021/05/07 11:06:31;;;;;;;2.57;2.37;;;11.50;1.00;;;;;;5097138;27;20525;-80
2021/05/07 11:08:58;;;;;;;3.73;1.63;;;12.70;1.00;;;;;;5097763;27;20493;-78
2021/05/07 11:11:33;;;;;;;1.63;1.50;;;13.70;1.00;;;;;;5094020;27;21312;-78
2021/05/07 11:13:59;;;;;;;1.60;1.50;;;14.80;1.00;;;;;;5096863;27;20465;-77
2021/05/07 11:16:36;;;;;;;3.20;3.00;;;15.10;1.00;;;;;;5098428;27;20636;-76
2021/05/07 11:19:03;;;;;;;2.30;2.10;;;14.50;1.00;;;;;;5097044;27;20972;-78
2021/05/07 11:21:29;;;;;;;3.77;2.20;;;13.40;1.00;;;;;;5094509;28;20485;-77
2021/05/07 11:23:56;;;;;;;5.13;4.63;;;13.20;1.00;;;;;;5095074;27;20629;-78
2021/05/07 11:26:35;;;;;;;3.70;2.07;;;12.80;1.00;;;;;;5101304;27;20458;-80
2021/05/07 11:29:01;;;;;;;2.93;1.87;;;12.80;1.00;;;;;;5103904;27;20574;-80
2021/05/07 11:31:27;;;;;;;2.10;1.90;;;12.80;1.00;;;;;;5098610;27;20589;-79
2021/05/07 11:33:54;;;;;;;4.67;2.40;;;12.20;1.00;;;;;;5096175;27;21065;-76
2021/05/07 11:36:20;;;;;;;2.80;2.33;;;11.80;1.00;;;;;;5100426;27;20492;-77
2021/05/07 11:38:47;;;;;;;3.20;2.50;;;11.60;1.00;;;;;;5107097;27;20297;-78
2021/05/07 11:41:18;;;;;;;3.78;2.65;;;11.30;1.00;;;;;;5108262;27;20441;-78
2021/05/07 11:43:45;;;;;;;3.37;3.07;;;11.30;1.00;;;;;;5105350;27;20224;-79
2021/05/07 11:46:11;;;;;;;3.50;2.40;;;12.00;1.00;;;;;;5109881;27;20435;-79
2021/05/07 11:48:38;;;;;;;2.40;2.20;;;13.50;1.00;;;;;;5101466;27;20497;-77
2021/05/07 11:51:05;;;;;;;5.40;2.23;;;14.70;1.00;;;;;;5120240;27;20530;-77
2021/05/07 11:53:33;;;;;;;3.33;2.37;;;15.70;1.00;;;;;;5119835;27;20453;-77
2021/05/07 11:55:59;;;;;;;3.50;1.83;;;16.40;1.00;;;;;;5105528;27;21934;-79
2021/05/07 11:58:33;;;;;;;2.60;2.17;;;17.30;1.00;;;;;;5102400;27;20534;-79
2021/05/07 12:01:00;;;;;;;2.83;1.67;;;18.90;1.00;;;;;;5112968;27;20569;-76
2021/05/07 12:03:38;;;;;;;3.00;1.93;;;20.10;1.00;;;;;;5120737;27;20512;-77
2021/05/07 12:06:15;;;;;;;3.93;2.10;;;21.30;1.00;;;;;;5123698;27;20403;-78
2021/05/07 12:08:42;;;;;;;1.93;1.33;;;20.60;1.00;;;;;;5124718;27;20478;-77
2021/05/07 12:11:09;;;;;;;2.00;1.60;;;20.50;1.00;;;;;;5116428;27;20450;-78
2021/05/07 12:13:36;;;;;;;5.77;3.33;;;21.10;1.00;;;;;;5106615;27;20451;-76
2021/05/07 12:16:03;;;;;;;4.43;1.80;;;21.90;1.00;;;;;;5106836;27;20451;-77
2021/05/07 12:18:32;;;;;;;2.80;1.93;;;21.80;1.00;;;;;;5112421;27;20518;-77
2021/05/07 12:20:59;;;;;;;2.90;2.30;;;21.70;1.00;;;;;;5103262;27;20470;-77
2021/05/07 12:23:26;;;;;;;4.50;2.20;;;21.40;1.00;;;;;;5110155;28;20450;-77
2021/05/07 12:25:52;;;;;;;3.43;2.60;;;20.10;1.00;;;;;;5113548;27;20595;-76
2021/05/07 12:28:20;;;;;;;3.60;2.80;;;18.50;1.00;;;;;;5135422;27;20426;-75
2021/05/07 12:30:47;;;;;;;3.20;2.30;;;17.00;1.00;;;;;;5111117;27;20447;-76
2021/05/07 12:33:18;;;;;;;4.40;1.67;;;15.30;1.00;;;;;;5114926;27;20481;-76
2021/05/07 12:35:50;;;;;;;2.60;1.57;;;13.10;1.00;;;;;;5121822;27;20470;-79
2021/05/07 12:38:26;;;;;;;5.45;3.30;;;11.30;1.00;;;;;;5125023;28;20483;-79
2021/05/07 12:40:54;;;;;;;3.20;1.42;;;10.00;1.00;;;;;;5117784;27;20253;-82
2021/05/07 12:43:20;;;;;;;2.90;2.10;;;9.30;1.00;;;;;;5115839;27;20225;-79
2021/05/07 12:45:48;;;;;;;2.80;2.50;;;8.90;1.00;;;;;;5108510;27;20246;-80
2021/05/07 12:48:15;;;;;;;1.95;1.83;;;9.00;1.00;;;;;;5112613;28;20250;-77
2021/05/07 12:50:42;;;;;;;2.65;1.92;;;9.30;1.00;;;;;;5112780;27;20237;-77
2021/05/07 12:53:12;;;;;;;3.10;2.55;;;9.80;1.00;;;;;;5122044;27;20230;-77
2021/05/07 12:55:39;;;;;;;2.40;2.20;;;10.50;1.00;;;;;;5120744;27;20249;-80
2021/05/07 12:58:06;;;;;;;1.73;1.55;;;10.90;1.00;;;;;;5102318;28;20222;-78
2021/05/07 13:00:32;;;;;;;1.50;1.40;;;12.00;1.00;;;;;;5095693;27;21306;-77
2021/05/07 13:02:59;;;;;;;3.10;2.53;;;13.80;1.00;;;;;;5099083;27;22266;-77
2021/05/07 13:05:26;;;;;;;1.87;1.70;;;15.20;1.00;;;;;;5093388;27;20456;-77